createdAt,value
2019-05-13T00:02:17.211Z,33.55
2019-05-13T00:04:47.410Z,37.30
2019-05-13T00:07:17.858Z,33.25
2019-05-13T00:09:47.938Z,39.70
2019-05-13T00:12:18.103Z,33.48
2019-05-13T00:14:48.325Z,29.75
2019-05-13T00:17:18.538Z,30.17
2019-05-13T00:19:48.553Z,29.12
2019-05-13T00:22:18.653Z,35.03
2019-05-13T00:24:48.723Z,30.45
2019-05-13T00:27:18.852Z,33.48
2019-05-13T00:29:48.843Z,30.92
2019-05-13T00:32:19.069Z,37.42
2019-05-13T00:34:49.370Z,41.00
2019-05-13T00:37:19.462Z,47.88
2019-05-13T00:39:49.665Z,39.05
2019-05-13T00:42:19.723Z,45.63
2019-05-13T00:44:49.818Z,44.80
2019-05-13T00:47:20.020Z,40.10
2019-05-13T00:49:50.027Z,39.42
2019-05-13T00:52:20.125Z,38.80
2019-05-13T00:54:50.305Z,35.68
2019-05-13T00:57:20.450Z,43.55
2019-05-13T00:59:50.546Z,44.18
2019-05-13T01:02:21.079Z,43.40
2019-05-13T01:04:53.424Z,38.35
2019-05-13T01:07:28.524Z,41.58
2019-05-13T01:09:54.748Z,36.75
2019-05-13T01:12:24.948Z,40.90
2019-05-13T01:14:55.121Z,37.65
2019-05-13T01:17:25.285Z,38.67
2019-05-13T01:19:55.320Z,36.30
2019-05-13T01:22:25.665Z,36.55
2019-05-13T01:24:55.872Z,34.85
2019-05-13T01:27:26.059Z,34.67
2019-05-13T01:29:56.085Z,34.15
2019-05-13T01:32:26.259Z,36.23
2019-05-13T01:34:56.285Z,29.57
2019-05-13T01:37:39.075Z,34.95
2019-05-13T01:42:27.522Z,28.00
2019-05-13T01:44:57.699Z,28.42
2019-05-13T01:47:27.915Z,25.00
2019-05-13T01:49:57.984Z,28.15
2019-05-13T01:52:28.178Z,22.00
2019-05-13T01:55:03.417Z,24.15
2019-05-13T01:57:34.320Z,24.45
2019-05-13T02:00:05.877Z,24.60
2019-05-13T02:02:35.977Z,25.27
2019-05-13T02:05:07.142Z,25.37
2019-05-13T02:07:37.223Z,28.40
2019-05-13T02:10:08.910Z,24.43
2019-05-13T02:12:39.120Z,23.55
2019-05-13T02:15:09.298Z,27.75
2019-05-13T02:17:39.460Z,22.30
2019-05-13T02:20:09.649Z,22.42
2019-05-13T02:22:39.715Z,27.10
2019-05-13T02:25:09.888Z,24.32
2019-05-13T02:27:40.098Z,26.35
2019-05-13T02:30:10.278Z,32.08
2019-05-13T02:32:42.818Z,31.73
2019-05-13T02:37:43.838Z,30.02
2019-05-13T02:40:14.183Z,29.57
2019-05-13T02:42:44.364Z,26.62
2019-05-13T02:45:14.503Z,24.63
2019-05-13T02:47:44.649Z,31.20
2019-05-13T02:50:17.082Z,20.97
2019-05-13T02:52:48.546Z,25.23
2019-05-13T02:55:18.759Z,27.98
2019-05-13T02:57:48.881Z,24.52
2019-05-13T03:00:19.190Z,20.10
2019-05-13T03:02:52.261Z,24.82
2019-05-13T03:05:21.968Z,26.25
2019-05-13T03:07:53.212Z,21.87
2019-05-13T03:10:23.448Z,20.03
2019-05-13T03:12:53.651Z,19.55
2019-05-13T03:15:25.287Z,17.35
2019-05-13T03:18:05.530Z,20.50
2019-05-13T03:20:35.546Z,19.98
2019-05-13T03:23:05.564Z,18.85
2019-05-13T03:25:35.612Z,23.57
2019-05-13T03:28:05.633Z,26.90
2019-05-13T03:30:35.923Z,25.90
2019-05-13T03:33:11.100Z,32.25
2019-05-13T03:35:44.780Z,26.05
2019-05-13T03:38:12.775Z,33.83
2019-05-13T03:40:45.711Z,25.17
2019-05-13T03:43:16.480Z,30.72
2019-05-13T03:45:48.133Z,31.27
2019-05-13T03:48:23.334Z,26.55
2019-05-13T03:50:53.336Z,27.07
2019-05-13T03:53:23.594Z,31.42
2019-05-13T03:55:54.304Z,26.87
2019-05-13T03:58:25.630Z,41.68
2019-05-13T04:00:55.812Z,33.08
2019-05-13T04:03:25.791Z,43.00
2019-05-13T04:05:55.943Z,43.80
2019-05-13T04:08:26.107Z,38.08
2019-05-13T04:10:56.166Z,34.78
2019-05-13T04:13:26.260Z,32.33
2019-05-13T04:15:56.425Z,31.00
2019-05-13T04:18:26.612Z,29.48
2019-05-13T04:20:56.799Z,31.25
2019-05-13T04:23:26.990Z,26.73
2019-05-13T04:25:57.490Z,23.25
2019-05-13T04:28:27.736Z,22.32
2019-05-13T04:30:57.801Z,22.50
2019-05-13T04:33:28.017Z,23.07
2019-05-13T04:35:58.044Z,17.98
2019-05-13T04:38:28.122Z,20.55
2019-05-13T04:40:58.384Z,22.48
2019-05-13T04:43:33.734Z,20.97
2019-05-13T04:48:33.850Z,13.43
2019-05-13T04:51:03.479Z,24.02
2019-05-13T04:53:33.775Z,19.60
2019-05-13T04:56:03.910Z,14.93
2019-05-13T04:58:34.115Z,17.90
2019-05-13T05:01:09.135Z,16.45
2019-05-13T05:03:46.167Z,15.03
2019-05-13T05:06:18.248Z,22.35
2019-05-13T05:09:03.326Z,17.95
2019-05-13T05:11:53.510Z,17.85
2019-05-13T05:14:37.375Z,22.45
2019-05-13T05:17:25.462Z,23.22
2019-05-13T05:20:03.203Z,19.27
2019-05-13T05:22:35.957Z,19.07
2019-05-13T05:25:13.615Z,18.92
2019-05-13T05:27:47.906Z,14.60
2019-05-13T05:30:21.739Z,17.40
2019-05-13T05:33:11.327Z,18.10
2019-05-13T05:35:45.450Z,15.13
2019-05-13T05:38:17.364Z,19.23
2019-05-13T05:40:48.160Z,14.90
2019-05-13T05:43:22.058Z,15.07
2019-05-13T05:45:53.057Z,14.68
2019-05-13T05:48:24.125Z,13.65
2019-05-13T05:50:55.887Z,22.55
2019-05-13T05:53:26.472Z,21.97
2019-05-13T05:55:56.760Z,18.75
2019-05-13T05:58:28.666Z,13.98
2019-05-13T06:01:02.430Z,16.75
2019-05-13T06:03:33.352Z,18.60
2019-05-13T06:06:03.958Z,15.68
2019-05-13T06:08:34.194Z,14.83
2019-05-13T06:11:04.255Z,17.73
2019-05-13T06:13:34.316Z,15.50
2019-05-13T06:16:04.534Z,14.18
2019-05-13T06:18:34.701Z,21.15
2019-05-13T06:21:04.786Z,15.78
2019-05-13T06:23:35.013Z,15.30
2019-05-13T06:26:05.274Z,15.18
2019-05-13T06:28:35.285Z,18.02
2019-05-13T06:31:05.361Z,13.28
2019-05-13T06:33:35.474Z,13.35
2019-05-13T06:36:05.658Z,13.05
2019-05-13T06:38:35.630Z,14.18
2019-05-13T06:41:10.886Z,13.25
2019-05-13T06:43:37.593Z,16.87
2019-05-13T06:46:07.609Z,17.77
2019-05-13T06:48:37.703Z,17.92
2019-05-13T06:51:07.757Z,20.15
2019-05-13T06:53:37.957Z,13.28
2019-05-13T06:56:08.051Z,15.15
2019-05-13T06:58:38.206Z,15.50
2019-05-13T07:01:08.500Z,14.58
2019-05-13T07:03:38.602Z,17.40
2019-05-13T07:06:08.746Z,13.98
2019-05-13T07:08:38.897Z,11.48
2019-05-13T07:11:18.636Z,13.08
2019-05-13T07:13:42.240Z,16.67
2019-05-13T07:16:12.598Z,13.38
2019-05-13T07:18:42.903Z,13.58
2019-05-13T07:21:13.029Z,16.97
2019-05-13T07:26:13.753Z,7.95
2019-05-13T07:28:43.955Z,8.55
2019-05-13T07:31:14.752Z,7.55
2019-05-13T07:33:44.981Z,11.50
2019-05-13T07:36:15.153Z,11.00
2019-05-13T07:38:45.445Z,8.38
2019-05-13T07:41:31.324Z,7.03
2019-05-13T07:43:51.586Z,9.28
2019-05-13T07:46:21.871Z,9.28
2019-05-13T07:48:52.308Z,9.90
2019-05-13T07:51:22.417Z,10.48
2019-05-13T07:53:53.462Z,9.60
2019-05-13T07:56:23.656Z,15.05
2019-05-13T07:58:53.735Z,8.15
2019-05-13T08:03:54.477Z,13.95
2019-05-13T08:06:24.536Z,10.85
2019-05-13T08:08:54.617Z,8.73
2019-05-13T08:11:24.717Z,11.22
2019-05-13T08:13:54.786Z,7.12
2019-05-13T08:16:24.875Z,12.15
2019-05-13T08:18:55.009Z,11.12
2019-05-13T08:21:25.125Z,6.85
2019-05-13T08:23:55.230Z,9.05
2019-05-13T08:26:25.496Z,9.58
2019-05-13T08:29:01.632Z,8.38
2019-05-13T08:31:27.445Z,9.75
2019-05-13T08:33:57.534Z,7.70
2019-05-13T08:36:28.213Z,8.27
2019-05-13T08:38:58.310Z,9.08
2019-05-13T08:41:28.498Z,9.60
2019-05-13T08:43:58.666Z,9.18
2019-05-13T08:46:28.689Z,7.37
2019-05-13T08:48:59.045Z,6.70
2019-05-13T08:51:31.459Z,10.00
2019-05-13T08:54:02.493Z,8.75
2019-05-13T08:56:32.740Z,8.80
2019-05-13T08:59:02.930Z,12.88
2019-05-13T09:01:33.518Z,9.65
2019-05-13T09:04:03.593Z,6.83
2019-05-13T09:06:33.977Z,12.88
2019-05-13T09:09:05.903Z,6.80
2019-05-13T09:11:36.099Z,7.40
2019-05-13T09:14:06.389Z,13.53
2019-05-13T09:16:36.602Z,7.35
2019-05-13T09:19:06.759Z,9.40
2019-05-13T09:21:36.826Z,7.75
2019-05-13T09:24:20.613Z,11.10
2019-05-13T09:26:38.973Z,9.43
2019-05-13T09:29:11.720Z,8.70
2019-05-13T09:31:41.602Z,9.70
2019-05-13T09:34:12.345Z,10.00
2019-05-13T09:36:42.827Z,7.10
2019-05-13T09:39:12.889Z,7.80
2019-05-13T09:41:44.641Z,13.30
2019-05-13T09:44:14.622Z,8.88
2019-05-13T09:46:44.788Z,9.60
2019-05-13T09:49:19.688Z,12.70
2019-05-13T09:51:46.572Z,9.60
2019-05-13T09:54:16.718Z,16.35
2019-05-13T09:56:47.007Z,11.93
2019-05-13T09:59:17.188Z,10.55
2019-05-13T10:01:47.396Z,11.80
2019-05-13T10:04:17.549Z,12.90
2019-05-13T10:06:47.652Z,20.10
2019-05-13T10:09:17.830Z,13.43
2019-05-13T10:11:48.014Z,9.85
2019-05-13T10:14:19.658Z,9.47
2019-05-13T10:16:51.483Z,14.03
2019-05-13T10:19:21.780Z,11.73
2019-05-13T10:21:52.662Z,10.43
2019-05-13T10:24:22.793Z,12.93
2019-05-13T10:26:53.018Z,11.05
2019-05-13T10:31:53.579Z,12.55
2019-05-13T10:34:23.855Z,8.48
2019-05-13T10:36:54.134Z,12.93
2019-05-13T10:39:26.998Z,14.05
2019-05-13T10:41:57.222Z,13.93
2019-05-13T10:44:27.276Z,16.40
2019-05-13T10:46:57.482Z,23.87
2019-05-13T10:49:27.575Z,28.02
2019-05-13T10:51:57.829Z,21.23
2019-05-13T10:54:27.953Z,19.87
2019-05-13T10:56:59.612Z,24.07
2019-05-13T10:59:29.963Z,19.92
2019-05-13T11:02:02.281Z,25.02
2019-05-13T11:04:32.730Z,21.70
2019-05-13T11:07:03.417Z,20.15
2019-05-13T11:09:33.594Z,25.57
2019-05-13T11:12:03.815Z,140.22
2019-05-13T11:14:34.033Z,39.10
2019-05-13T11:17:04.237Z,31.82
2019-05-13T11:19:36.928Z,32.95
2019-05-13T11:22:08.444Z,36.23
2019-05-13T11:24:38.503Z,37.65
2019-05-13T11:27:11.748Z,34.05
2019-05-13T11:29:41.518Z,28.05
2019-05-13T11:34:42.842Z,30.37
2019-05-13T11:37:13.137Z,33.63
2019-05-13T11:39:43.249Z,22.85
2019-05-13T11:42:13.988Z,27.02
2019-05-13T11:44:44.877Z,26.93
2019-05-13T11:47:15.074Z,35.40
2019-05-13T11:49:45.221Z,38.48
2019-05-13T11:52:15.287Z,39.88
2019-05-13T11:54:45.406Z,34.13
2019-05-13T11:57:15.761Z,31.82
2019-05-13T11:59:45.841Z,37.60
2019-05-13T12:02:16.059Z,34.40
2019-05-13T12:04:46.152Z,32.58
2019-05-13T12:07:16.234Z,30.85
2019-05-13T12:09:46.361Z,26.62
2019-05-13T12:12:16.487Z,29.30
2019-05-13T12:15:16.254Z,36.55
2019-05-13T12:17:18.650Z,30.27
2019-05-13T12:19:48.781Z,29.30
2019-05-13T12:22:22.999Z,32.90
2019-05-13T12:24:52.085Z,27.93
2019-05-13T12:27:22.433Z,27.58
2019-05-13T12:29:53.130Z,21.55
2019-05-13T12:32:23.406Z,29.35
2019-05-13T12:34:53.677Z,32.50
2019-05-13T12:37:23.857Z,14.55
2019-05-13T12:39:54.101Z,14.03
2019-05-13T12:42:24.324Z,13.95
2019-05-13T12:45:09.306Z,9.08
2019-05-13T12:49:56.135Z,10.20
2019-05-13T12:52:26.368Z,9.83
2019-05-13T12:54:56.739Z,10.18
2019-05-13T12:57:26.850Z,9.08
2019-05-13T12:59:57.043Z,11.70
2019-05-13T13:02:27.101Z,12.13
2019-05-13T13:05:10.489Z,14.80
2019-05-13T13:07:29.062Z,14.40
2019-05-13T13:09:59.241Z,16.37
2019-05-13T13:12:34.662Z,13.75
2019-05-13T13:15:20.451Z,22.13
2019-05-13T13:20:08.982Z,26.00
2019-05-13T13:22:34.949Z,22.13
2019-05-13T13:25:06.552Z,17.92
2019-05-13T13:30:09.258Z,16.02
2019-05-13T13:32:43.904Z,21.33
2019-05-13T13:35:14.688Z,13.25
2019-05-13T13:40:13.882Z,19.55
2019-05-13T13:42:44.222Z,18.00
2019-05-13T13:45:14.499Z,16.35
2019-05-13T13:47:45.673Z,16.42
2019-05-13T13:50:16.083Z,12.37
2019-05-13T13:52:46.278Z,16.55
2019-05-13T13:55:16.684Z,19.42
2019-05-13T13:57:47.027Z,13.48
2019-05-13T14:00:33.069Z,10.70
2019-05-13T14:02:53.730Z,13.88
2019-05-13T14:05:24.721Z,9.38
2019-05-13T14:07:52.876Z,17.98
2019-05-13T14:10:23.155Z,13.62
2019-05-13T14:12:53.334Z,13.32
2019-05-13T14:15:23.357Z,12.28
2019-05-13T14:17:53.553Z,17.10
2019-05-13T14:20:23.715Z,12.18
2019-05-13T14:22:57.821Z,11.50
2019-05-13T14:25:25.599Z,11.18
2019-05-13T14:27:55.721Z,11.40
2019-05-13T14:30:25.919Z,14.20
2019-05-13T14:32:56.163Z,16.70
2019-05-13T14:35:26.381Z,15.00
2019-05-13T14:37:56.662Z,17.65
2019-05-13T14:40:26.765Z,17.05
2019-05-13T14:42:56.977Z,15.45
2019-05-13T14:45:27.488Z,9.28
2019-05-13T14:47:57.470Z,20.62
2019-05-13T14:50:27.683Z,16.40
2019-05-13T14:52:57.823Z,11.10
2019-05-13T14:55:27.963Z,21.70
2019-05-13T14:57:58.138Z,19.27
2019-05-13T15:00:28.323Z,21.05
2019-05-13T15:02:58.550Z,19.05
2019-05-13T15:05:31.167Z,13.30
2019-05-13T15:08:00.616Z,10.15
2019-05-13T15:10:31.508Z,16.82
2019-05-13T15:13:03.043Z,13.25
2019-05-13T15:15:33.462Z,15.48
2019-05-13T15:18:03.628Z,15.50
2019-05-13T15:20:33.868Z,13.62
2019-05-13T15:23:04.102Z,10.25
2019-05-13T15:25:34.508Z,14.70
2019-05-13T15:28:04.769Z,17.20
2019-05-13T15:30:34.966Z,9.88
2019-05-13T15:33:05.197Z,13.40
2019-05-13T15:35:35.351Z,11.40
2019-05-13T15:38:05.565Z,11.35
2019-05-13T15:40:35.649Z,9.45
2019-05-13T15:43:05.812Z,12.05
2019-05-13T15:45:36.136Z,10.43
2019-05-13T15:48:06.280Z,10.43
2019-05-13T15:50:36.375Z,11.90
2019-05-13T15:53:06.927Z,11.75
2019-05-13T15:55:37.110Z,12.70
2019-05-13T15:58:07.266Z,14.63
2019-05-13T16:00:37.437Z,19.05
2019-05-13T16:03:07.540Z,14.47
2019-05-13T16:05:37.747Z,19.20
2019-05-13T16:08:07.899Z,20.82
2019-05-13T16:10:38.114Z,21.87
2019-05-13T16:13:08.321Z,22.48
2019-05-13T16:15:38.494Z,27.05
2019-05-13T16:18:08.689Z,24.87
2019-05-13T16:20:42.590Z,30.95
2019-05-13T16:25:41.904Z,26.45
2019-05-13T16:28:12.934Z,29.07
2019-05-13T16:30:43.037Z,25.82
2019-05-13T16:33:13.610Z,35.63
2019-05-13T16:35:43.731Z,38.05
2019-05-13T16:38:13.964Z,36.15
2019-05-13T16:40:44.228Z,43.30
2019-05-13T16:43:14.346Z,40.43
2019-05-13T16:45:44.608Z,39.40
2019-05-13T16:48:14.881Z,43.98
2019-05-13T16:50:45.133Z,30.95
2019-05-13T16:53:15.345Z,20.80
2019-05-13T16:55:45.531Z,19.00
2019-05-13T16:58:15.674Z,16.70
2019-05-13T17:00:46.265Z,19.25
2019-05-13T17:03:16.488Z,17.60
2019-05-13T17:05:46.671Z,15.78
2019-05-13T17:08:17.860Z,15.95
2019-05-13T17:10:47.915Z,12.70
2019-05-13T17:13:19.346Z,14.95
2019-05-13T17:15:49.553Z,13.32
2019-05-13T17:18:21.741Z,10.75
2019-05-13T17:20:52.068Z,12.33
2019-05-13T17:23:22.295Z,12.80
2019-05-13T17:25:52.466Z,12.63
2019-05-13T17:28:22.651Z,10.38
2019-05-13T17:30:53.537Z,10.60
2019-05-13T17:33:23.714Z,16.05
2019-05-13T17:35:53.761Z,9.15
2019-05-13T17:38:23.946Z,13.10
2019-05-13T17:40:55.137Z,10.60
2019-05-13T17:43:26.255Z,13.53
2019-05-13T17:45:56.456Z,11.70
2019-05-13T17:48:29.533Z,13.22
2019-05-13T17:50:58.278Z,9.58
2019-05-13T17:53:28.368Z,12.10
2019-05-13T17:55:58.550Z,11.48
2019-05-13T17:58:28.684Z,12.10
2019-05-13T18:00:58.854Z,10.18
2019-05-13T18:03:29.047Z,12.28
2019-05-13T18:05:59.317Z,13.28
2019-05-13T18:08:31.765Z,9.20
2019-05-13T18:11:02.422Z,9.40
2019-05-13T18:13:32.705Z,12.88
2019-05-13T18:16:02.916Z,13.18
2019-05-13T18:18:42.687Z,10.43
2019-05-13T18:23:33.819Z,12.23
2019-05-13T18:26:03.955Z,17.92
2019-05-13T18:28:34.179Z,17.30
2019-05-13T18:31:04.382Z,13.32
2019-05-13T18:33:34.978Z,11.73
2019-05-13T18:36:05.191Z,10.82
2019-05-13T18:38:35.418Z,12.23
2019-05-13T18:41:05.715Z,9.18
2019-05-13T18:43:35.855Z,8.88
2019-05-13T18:46:06.025Z,9.58
2019-05-13T18:48:36.192Z,9.23
2019-05-13T18:51:06.392Z,10.10
2019-05-13T18:53:36.625Z,9.45
2019-05-13T18:56:06.823Z,9.43
2019-05-13T18:58:37.070Z,10.25
2019-05-13T19:01:07.285Z,11.08
2019-05-13T19:03:37.449Z,14.68
2019-05-13T19:06:07.632Z,10.50
2019-05-13T19:08:37.789Z,9.68
2019-05-13T19:11:07.902Z,10.18
2019-05-13T19:13:37.882Z,9.68
2019-05-13T19:16:07.956Z,12.00
2019-05-13T19:18:38.146Z,10.82
2019-05-13T19:21:08.334Z,11.38
2019-05-13T19:23:38.497Z,10.58
2019-05-13T19:26:08.621Z,11.75
2019-05-13T19:28:38.785Z,12.20
2019-05-13T19:31:08.971Z,12.25
2019-05-13T19:33:41.473Z,11.03
2019-05-13T19:36:11.857Z,14.90
2019-05-13T19:38:42.404Z,14.35
2019-05-13T19:41:12.449Z,17.00
2019-05-13T19:43:43.931Z,16.67
2019-05-13T19:46:14.053Z,14.45
2019-05-13T19:48:44.157Z,16.87
2019-05-13T19:51:14.263Z,14.33
2019-05-13T19:53:45.697Z,13.90
2019-05-13T19:56:16.748Z,15.85
2019-05-13T19:58:48.064Z,18.32
2019-05-13T20:01:18.133Z,14.35
2019-05-13T20:03:48.357Z,14.15
2019-05-13T20:06:18.512Z,12.78
2019-05-13T20:08:48.743Z,12.85
2019-05-13T20:11:18.945Z,11.68
2019-05-13T20:13:49.118Z,12.80
2019-05-13T20:16:19.451Z,13.08
2019-05-13T20:18:51.674Z,14.87
2019-05-13T20:21:21.389Z,13.83
2019-05-13T20:23:51.956Z,15.65
2019-05-13T20:26:22.409Z,13.88
2019-05-13T20:28:52.425Z,12.95
2019-05-13T20:31:22.789Z,15.32
2019-05-13T20:33:53.120Z,18.02
2019-05-13T20:36:23.270Z,12.70
2019-05-13T20:38:53.447Z,15.43
2019-05-13T20:41:23.543Z,19.02
2019-05-13T20:43:53.611Z,13.00
2019-05-13T20:46:23.765Z,15.65
2019-05-13T20:48:53.785Z,13.90
2019-05-13T20:51:24.017Z,15.28
2019-05-13T20:53:54.110Z,13.55
2019-05-13T20:56:25.627Z,14.90
2019-05-13T20:58:55.789Z,19.25
2019-05-13T21:01:25.972Z,14.78
2019-05-13T21:03:56.159Z,14.58
2019-05-13T21:06:26.382Z,13.83
2019-05-13T21:08:56.353Z,13.28
2019-05-13T21:11:26.370Z,15.23
2019-05-13T21:13:56.555Z,12.95
2019-05-13T21:16:26.537Z,15.38
2019-05-13T21:18:56.604Z,16.17
2019-05-13T21:21:26.775Z,16.25
2019-05-13T21:23:56.771Z,16.52
2019-05-13T21:26:27.049Z,15.55
2019-05-13T21:28:57.258Z,14.80
2019-05-13T21:31:27.380Z,12.68
2019-05-13T21:33:57.475Z,21.12
2019-05-13T21:36:27.538Z,12.85
2019-05-13T21:38:57.603Z,12.80
2019-05-13T21:41:27.763Z,13.62
2019-05-13T21:43:57.997Z,14.23
2019-05-13T21:46:28.078Z,14.58
2019-05-13T21:48:58.127Z,12.55
2019-05-13T21:51:28.202Z,13.13
2019-05-13T21:53:58.262Z,13.10
2019-05-13T21:56:28.386Z,18.27
2019-05-13T21:58:58.421Z,14.58
2019-05-13T22:01:31.280Z,14.73
2019-05-13T22:04:01.757Z,14.58
2019-05-13T22:06:33.081Z,15.18
2019-05-13T22:09:03.159Z,16.60
2019-05-13T22:11:35.194Z,12.85
2019-05-13T22:16:34.697Z,14.50
2019-05-13T22:19:04.769Z,17.05
2019-05-13T22:21:35.002Z,12.93
2019-05-13T22:24:05.205Z,14.10
2019-05-13T22:26:35.263Z,17.35
2019-05-13T22:29:05.447Z,18.50
2019-05-13T22:31:35.688Z,13.50
2019-05-13T22:34:05.779Z,14.40
2019-05-13T22:36:35.884Z,15.35
2019-05-13T22:39:06.544Z,14.63
2019-05-13T22:41:36.743Z,17.52
2019-05-13T22:44:06.903Z,14.65
2019-05-13T22:46:36.959Z,16.05
2019-05-13T22:49:07.145Z,19.52
2019-05-13T22:51:37.353Z,15.95
2019-05-13T22:54:07.447Z,16.32
2019-05-13T22:56:37.537Z,15.45
2019-05-13T22:59:07.599Z,16.82
2019-05-13T23:01:37.770Z,15.38
2019-05-13T23:04:08.049Z,15.80
2019-05-13T23:06:38.290Z,15.25
2019-05-13T23:09:08.390Z,16.77
2019-05-13T23:11:38.593Z,16.15
2019-05-13T23:14:10.874Z,16.35
2019-05-13T23:16:42.160Z,15.23
2019-05-13T23:19:12.181Z,13.53
2019-05-13T23:21:42.367Z,14.45
2019-05-13T23:24:12.394Z,16.15
2019-05-13T23:26:42.492Z,15.35
2019-05-13T23:29:12.538Z,15.53
2019-05-13T23:31:42.609Z,16.42
2019-05-13T23:34:12.788Z,15.13
2019-05-13T23:36:42.937Z,15.78
2019-05-13T23:39:13.062Z,15.30
2019-05-13T23:41:43.113Z,14.03
2019-05-13T23:44:23.688Z,14.25
2019-05-13T23:49:14.119Z,14.40
2019-05-13T23:51:44.311Z,14.85
2019-05-13T23:54:14.371Z,14.80
2019-05-13T23:56:44.548Z,14.87
2019-05-13T23:59:14.653Z,14.25
